Time;durP1;ratioP1;P1;durP2;ratioP2;P2;SDS_P1;SDS_P2;PMS_P1;PMS_P2;Temp;Humidity;BMP_temperature;BMP_pressure;BME280_temperature;BME280_humidity;BME280_pressure;Samples;Min_cycle;Max_cycle;Signal;HPM_P1;HPM_P2
2022/04/08 00:00:29;;;;;;;3.93;1.63;;;;;;;7.09;73.95;98190.03;5072297;22;20233;-81
2022/04/08 00:02:55;;;;;;;4.47;0.80;;;;;;;7.08;73.89;98206.88;5038249;28;20206;-81
2022/04/08 00:05:23;;;;;;;2.53;0.70;;;;;;;7.06;74.27;98204.34;5037546;28;20209;-82
2022/04/08 00:07:50;;;;;;;4.20;0.63;;;;;;;7.04;74.87;98208.94;5046041;28;20608;-82
2022/04/08 00:10:18;;;;;;;3.30;0.90;;;;;;;7.04;74.45;98206.28;5027888;28;20237;-82
2022/04/08 00:12:45;;;;;;;2.03;1.00;;;;;;;7.03;74.57;98214.38;5061956;28;20202;-82
2022/04/08 00:15:11;;;;;;;2.20;0.87;;;;;;;7.02;75.28;98225.91;5044415;28;20210;-82
2022/04/08 00:17:38;;;;;;;2.03;0.60;;;;;;;6.97;75.79;98234.28;5028946;28;20728;-83
2022/04/08 00:20:05;;;;;;;3.10;0.97;;;;;;;6.95;76.00;98234.41;5028771;28;20238;-83
2022/04/08 00:22:38;;;;;;;1.87;0.70;;;;;;;6.92;76.25;98234.69;5029017;28;20672;-84
2022/04/08 00:25:05;;;;;;;1.53;0.70;;;;;;;6.89;77.00;98242.88;5028925;28;20183;-83
2022/04/08 00:27:32;;;;;;;5.70;1.00;;;;;;;6.86;76.59;98250.22;5046166;28;20236;-83
2022/04/08 00:29:58;;;;;;;2.83;0.63;;;;;;;6.84;76.50;98268.88;5068327;28;20228;-83
2022/04/08 00:32:26;;;;;;;4.73;0.90;;;;;;;6.82;76.87;98276.09;5068081;28;20698;-83
2022/04/08 00:34:53;;;;;;;5.57;1.27;;;;;;;6.79;77.57;98289.63;5052493;28;20626;-83
2022/04/08 00:37:20;;;;;;;1.83;0.90;;;;;;;6.78;78.20;98287.09;5047877;28;20205;-83
2022/04/08 00:39:48;;;;;;;3.67;0.70;;;;;;;6.72;78.64;98290.25;5047955;28;20232;-83
2022/04/08 00:42:14;;;;;;;2.07;0.70;;;;;;;6.64;79.38;98304.13;5032106;28;20563;-84
2022/04/08 00:44:41;;;;;;;2.10;0.80;;;;;;;6.58;79.93;98300.22;5028714;28;20297;-84
2022/04/08 00:47:08;;;;;;;1.70;0.60;;;;;;;6.50;79.96;98315.03;5028436;28;20256;-83
2022/04/08 00:49:37;;;;;;;2.10;0.80;;;;;;;6.47;80.19;98331.16;5038615;28;20229;-83
2022/04/08 00:52:05;;;;;;;1.43;0.83;;;;;;;6.45;79.84;98341.03;5048724;28;20202;-83
2022/04/08 00:54:33;;;;;;;6.57;1.20;;;;;;;6.42;80.51;98339.47;5048323;28;20209;-83
2022/04/08 00:57:01;;;;;;;3.63;0.93;;;;;;;6.40;80.48;98335.28;5048645;28;20206;-82
2022/04/08 00:59:29;;;;;;;1.33;0.60;;;;;;;6.39;80.89;98341.53;5035997;28;20293;-83
2022/04/08 01:01:58;;;;;;;0.70;0.50;;;;;;;6.36;81.16;98339.13;5034720;28;20191;-83
2022/04/08 01:04:27;;;;;;;1.73;0.50;;;;;;;6.32;81.16;98335.91;5026909;28;20715;-83
2022/04/08 01:06:54;;;;;;;1.07;0.40;;;;;;;6.28;80.78;98339.75;5017646;28;20234;-83
2022/04/08 01:09:21;;;;;;;3.57;0.87;;;;;;;6.24;81.15;98354.22;5022663;28;20289;-83
2022/04/08 01:11:48;;;;;;;3.70;0.77;;;;;;;6.22;81.41;98354.34;5034032;28;20210;-83
2022/04/08 01:14:16;;;;;;;2.67;0.97;;;;;;;6.20;81.83;98364.19;5034183;28;20686;-83
2022/04/08 01:16:43;;;;;;;3.87;1.10;;;;;;;6.19;81.79;98361.69;5015167;28;20203;-83
2022/04/08 01:19:10;;;;;;;3.83;1.40;;;;;;;6.18;82.02;98379.34;5014814;28;20318;-82
2022/04/08 01:21:37;;;;;;;2.47;0.80;;;;;;;6.19;81.93;98372.25;5026063;28;20191;-83
2022/04/08 01:24:04;;;;;;;4.50;1.10;;;;;;;6.18;82.34;98367.91;5031431;28;20210;-83
2022/04/08 01:26:32;;;;;;;3.27;0.93;;;;;;;6.16;82.60;98373.34;5028583;28;20212;-83
2022/04/08 01:28:59;;;;;;;2.73;1.03;;;;;;;6.16;82.43;98373.34;5042742;28;20627;-83
2022/04/08 01:31:29;;;;;;;3.53;0.80;;;;;;;6.16;82.49;98386.53;5048164;28;20225;-83
2022/04/08 01:33:56;;;;;;;2.20;0.80;;;;;;;6.15;82.47;98381.38;5030255;28;20207;-83
2022/04/08 01:36:22;;;;;;;3.57;0.60;;;;;;;6.14;82.62;98380.53;5030621;28;20212;-84
2022/04/08 01:38:49;;;;;;;2.77;0.90;;;;;;;6.13;82.63;98399.16;5031441;28;20232;-84
2022/04/08 01:41:16;;;;;;;3.30;0.90;;;;;;;6.12;82.87;98395.69;5040151;28;20229;-83
2022/04/08 01:43:44;;;;;;;2.70;1.00;;;;;;;6.10;82.86;98392.31;5023415;28;21542;-83
2022/04/08 01:46:11;;;;;;;3.73;0.97;;;;;;;6.12;82.75;98408.91;5036150;28;20220;-83
2022/04/08 01:48:38;;;;;;;2.43;0.70;;;;;;;6.14;82.94;98427.28;5039210;28;20256;-83
2022/04/08 01:51:04;;;;;;;4.30;1.00;;;;;;;6.14;82.40;98433.41;5034557;28;20704;-83
2022/04/08 01:53:31;;;;;;;2.63;0.80;;;;;;;6.12;82.97;98466.19;5034405;28;20210;-83
2022/04/08 01:55:58;;;;;;;2.20;0.87;;;;;;;6.11;83.30;98451.28;5035144;28;20206;-84
2022/04/08 01:58:24;;;;;;;2.57;1.07;;;;;;;6.12;82.75;98461.75;5034702;28;20285;-84
2022/04/08 02:00:52;;;;;;;3.20;1.00;;;;;;;6.07;83.91;98478.94;5040272;28;20256;-84
2022/04/08 02:03:20;;;;;;;1.17;0.40;;;;;;;6.01;83.60;98488.19;5055325;28;20207;-84
2022/04/08 02:05:47;;;;;;;1.00;0.40;;;;;;;5.93;83.31;98501.16;5054833;28;20205;-83
2022/04/08 02:08:14;;;;;;;0.30;0.27;;;;;;;5.85;82.82;98503.53;5054738;28;20316;-84
2022/04/08 02:10:40;;;;;;;1.60;0.40;;;;;;;5.75;82.33;98499.91;5053494;28;20317;-84
2022/04/08 02:13:08;;;;;;;2.73;0.50;;;;;;;5.69;82.39;98503.06;5046776;28;20198;-83
2022/04/08 02:15:35;;;;;;;0.60;0.50;;;;;;;5.62;82.36;98499.19;5045664;28;20217;-83
2022/04/08 02:18:04;;;;;;;1.87;0.50;;;;;;;5.54;82.43;98510.38;5054347;28;20659;-83
2022/04/08 02:20:32;;;;;;;1.17;0.67;;;;;;;5.49;82.39;98518.63;5053977;28;20688;-83
2022/04/08 02:22:59;;;;;;;3.47;0.47;;;;;;;5.44;82.26;98518.13;5034466;28;20706;-82
2022/04/08 02:25:26;;;;;;;1.57;0.63;;;;;;;5.41;82.32;98538.63;5034675;28;20640;-82
2022/04/08 02:27:53;;;;;;;4.20;1.03;;;;;;;5.38;82.48;98538.84;5034519;28;20233;-82
2022/04/08 02:30:20;;;;;;;2.27;0.80;;;;;;;5.37;82.89;98540.69;5030504;28;20226;-82
2022/04/08 02:32:47;;;;;;;2.47;0.63;;;;;;;5.37;82.61;98543.34;5035146;28;20206;-82
2022/04/08 02:35:15;;;;;;;2.07;0.50;;;;;;;5.34;82.79;98559.38;5034515;28;20202;-81
2022/04/08 02:37:41;;;;;;;2.77;0.73;;;;;;;5.35;82.96;98557.59;5034533;28;20209;-81
2022/04/08 02:40:09;;;;;;;2.07;0.60;;;;;;;5.35;82.89;98558.44;5033701;28;20222;-82
2022/04/08 02:42:36;;;;;;;3.10;1.00;;;;;;;5.36;82.95;98572.47;5034287;28;20213;-82
2022/04/08 02:45:03;;;;;;;2.13;0.77;;;;;;;5.35;83.04;98574.28;5033404;28;20687;-82
2022/04/08 02:47:30;;;;;;;1.93;0.60;;;;;;;5.34;83.22;98580.50;5043956;28;20235;-82
2022/04/08 02:49:57;;;;;;;3.73;1.00;;;;;;;5.32;83.17;98579.78;5053738;28;20626;-82
2022/04/08 02:52:24;;;;;;;1.87;0.70;;;;;;;5.32;83.00;98582.41;5044958;28;20213;-82
2022/04/08 02:54:57;;;;;;;2.20;0.90;;;;;;;5.30;83.53;98594.88;5036986;28;20262;-84
2022/04/08 02:57:23;;;;;;;1.53;0.83;;;;;;;5.31;83.43;98598.38;5031795;28;20206;-83
2022/04/08 02:59:53;;;;;;;2.87;0.90;;;;;;;5.29;83.66;98605.56;5032218;28;20238;-83
2022/04/08 03:02:19;;;;;;;1.93;0.70;;;;;;;5.28;83.73;98602.06;5032131;28;20206;-83
2022/04/08 03:04:46;;;;;;;1.80;1.10;;;;;;;5.28;83.97;98611.78;5031890;28;20240;-83
2022/04/08 03:07:12;;;;;;;2.97;0.87;;;;;;;5.27;83.94;98613.59;5031565;28;20230;-84
2022/04/08 03:09:41;;;;;;;2.00;0.90;;;;;;;5.27;84.43;98624.13;5031876;28;20320;-83
2022/04/08 03:12:08;;;;;;;4.97;0.90;;;;;;;5.27;84.73;98621.50;5031566;28;20202;-82
2022/04/08 03:14:34;;;;;;;3.67;0.90;;;;;;;5.27;84.64;98628.56;5032421;28;20198;-83
2022/04/08 03:17:01;;;;;;;2.40;0.83;;;;;;;5.26;84.97;98632.16;5033463;28;20212;-82
2022/04/08 03:19:28;;;;;;;3.30;0.70;;;;;;;5.26;84.92;98635.66;5033352;28;20234;-82
2022/04/08 03:21:55;;;;;;;2.53;0.70;;;;;;;5.23;85.07;98641.16;5045638;28;20670;-81
2022/04/08 03:24:21;;;;;;;1.17;0.50;;;;;;;5.21;84.61;98643.06;5039303;28;20209;-81
2022/04/08 03:26:49;;;;;;;2.43;0.80;;;;;;;5.17;84.94;98642.47;5033176;28;20214;-80
2022/04/08 03:29:16;;;;;;;2.60;0.80;;;;;;;5.12;84.65;98654.28;5032731;28;20276;-81
2022/04/08 03:31:42;;;;;;;2.17;0.70;;;;;;;5.10;84.50;98654.41;5032882;28;20248;-82
2022/04/08 03:34:16;;;;;;;1.50;0.40;;;;;;;5.10;84.80;98658.84;5035872;28;20212;-83
2022/04/08 03:36:43;;;;;;;1.90;0.67;;;;;;;5.11;84.31;98660.53;5036485;28;20229;-83
2022/04/08 03:39:09;;;;;;;1.63;0.60;;;;;;;5.11;84.27;98668.44;5035386;28;20308;-82
2022/04/08 03:41:36;;;;;;;1.20;0.60;;;;;;;5.10;84.43;98666.75;5033603;28;20255;-82
2022/04/08 03:44:04;;;;;;;1.63;0.70;;;;;;;5.11;84.07;98673.72;5031116;28;20234;-81
2022/04/08 03:46:31;;;;;;;1.43;0.60;;;;;;;5.11;84.36;98679.84;5033571;28;20221;-82
2022/04/08 03:48:58;;;;;;;1.90;0.97;;;;;;;5.11;84.00;98681.63;5032691;28;20222;-81
2022/04/08 03:51:25;;;;;;;1.77;1.00;;;;;;;5.12;84.26;98683.31;5030259;28;20230;-82
2022/04/08 03:53:51;;;;;;;1.10;0.70;;;;;;;5.13;84.54;98687.63;5014183;28;20585;-81
2022/04/08 03:56:18;;;;;;;1.73;0.70;;;;;;;5.10;84.81;98687.84;5030252;28;20199;-81
2022/04/08 03:58:45;;;;;;;2.13;1.13;;;;;;;5.09;84.66;98696.72;5030654;28;20626;-81
2022/04/08 04:01:13;;;;;;;0.50;0.40;;;;;;;5.09;84.17;98702.00;5030454;28;20240;-81
2022/04/08 04:03:39;;;;;;;1.83;0.50;;;;;;;5.09;84.52;98697.56;5031337;28;20206;-81
2022/04/08 04:06:06;;;;;;;0.70;0.53;;;;;;;5.09;84.86;98699.38;5031069;28;20702;-81
2022/04/08 04:08:32;;;;;;;0.90;0.67;;;;;;;5.06;84.70;98704.84;5030490;28;20229;-81
2022/04/08 04:10:59;;;;;;;2.97;0.60;;;;;;;5.04;84.75;98712.88;5030299;28;20222;-81
2022/04/08 04:13:25;;;;;;;1.67;1.13;;;;;;;5.04;85.06;98709.41;5031277;28;20603;-81
2022/04/08 04:15:52;;;;;;;1.80;0.80;;;;;;;5.00;84.96;98719.34;5019334;28;20213;-81
2022/04/08 04:18:20;;;;;;;1.00;0.67;;;;;;;5.00;85.36;98724.63;5019651;28;20622;-81
2022/04/08 04:20:46;;;;;;;0.50;0.50;;;;;;;4.98;85.04;98729.16;5034348;28;20213;-81
2022/04/08 04:23:13;;;;;;;1.23;0.60;;;;;;;4.99;85.40;98743.19;5050782;28;20305;-81
2022/04/08 04:25:39;;;;;;;0.80;0.70;;;;;;;4.96;85.44;98751.31;5051139;28;20216;-81
2022/04/08 04:28:06;;;;;;;1.27;0.50;;;;;;;4.98;85.54;98758.19;5050907;28;20588;-81
2022/04/08 04:30:33;;;;;;;0.43;0.43;;;;;;;4.98;85.55;98774.00;5050176;28;20320;-81
2022/04/08 04:33:00;;;;;;;1.90;0.70;;;;;;;4.99;85.59;98762.50;5051240;28;20321;-81
2022/04/08 04:35:29;;;;;;;1.67;0.57;;;;;;;4.99;85.25;98780.13;5046124;28;20212;-82
2022/04/08 04:37:55;;;;;;;1.43;0.40;;;;;;;4.97;85.38;98779.38;5034117;28;20214;-82
2022/04/08 04:40:21;;;;;;;1.37;0.50;;;;;;;4.95;85.53;98779.50;5033574;28;20222;-82
2022/04/08 04:42:48;;;;;;;0.30;0.30;;;;;;;4.95;85.70;98791.84;5033537;28;20729;-82
2022/04/08 04:45:15;;;;;;;0.73;0.50;;;;;;;4.95;85.47;98807.66;5034225;28;20207;-82
2022/04/08 04:47:41;;;;;;;0.60;0.40;;;;;;;4.91;85.52;98827.28;5033191;28;20214;-82
2022/04/08 04:50:09;;;;;;;0.40;0.33;;;;;;;4.91;85.10;98835.19;5033382;28;20562;-82
2022/04/08 04:52:37;;;;;;;0.67;0.30;;;;;;;4.84;84.67;98842.69;5033477;28;20198;-82
2022/04/08 04:55:04;;;;;;;1.63;0.40;;;;;;;4.79;84.20;98844.81;5033754;28;20198;-81
2022/04/08 04:57:30;;;;;;;2.63;0.83;;;;;;;4.71;82.38;98865.56;5033290;28;20214;-81
2022/04/08 04:59:57;;;;;;;0.70;0.40;;;;;;;4.60;81.35;98876.00;5033413;28;20390;-81
2022/04/08 05:02:23;;;;;;;1.13;0.50;;;;;;;4.54;81.53;98875.47;5034367;28;20220;-81
2022/04/08 05:04:50;;;;;;;2.33;0.60;;;;;;;4.48;81.27;98875.88;5033690;28;20217;-81
2022/04/08 05:07:17;;;;;;;1.03;0.50;;;;;;;4.41;79.89;98886.94;5033509;28;20206;-81
2022/04/08 05:09:45;;;;;;;1.77;0.40;;;;;;;4.36;79.87;98896.94;5032629;28;20882;-81
2022/04/08 05:12:11;;;;;;;1.33;0.43;;;;;;;4.26;78.56;98880.03;5029889;28;20206;-81
2022/04/08 05:14:38;;;;;;;2.53;0.50;;;;;;;4.19;78.15;98875.16;5027415;28;20206;-81
2022/04/08 05:17:06;;;;;;;2.13;0.40;;;;;;;4.14;78.46;98879.03;5027765;28;20198;-82
2022/04/08 05:19:33;;;;;;;2.83;0.40;;;;;;;4.12;78.26;98884.41;5028105;28;20226;-82
2022/04/08 05:21:59;;;;;;;3.70;0.30;;;;;;;4.11;78.26;98884.53;5027417;28;20693;-82
2022/04/08 05:24:26;;;;;;;3.00;1.30;;;;;;;4.13;78.81;98880.81;5018085;28;20218;-82
2022/04/08 05:26:54;;;;;;;1.23;0.40;;;;;;;4.15;79.07;98889.47;5020769;28;20298;-82
2022/04/08 05:29:20;;;;;;;0.37;0.20;;;;;;;4.16;78.68;98890.31;5032267;28;20222;-82
2022/04/08 05:31:47;;;;;;;1.03;0.33;;;;;;;4.17;79.10;98892.88;5029298;28;20293;-81
2022/04/08 05:34:14;;;;;;;1.60;0.37;;;;;;;4.19;79.50;98893.59;5032802;28;20210;-82
2022/04/08 05:36:41;;;;;;;0.30;0.30;;;;;;;4.24;79.11;98892.47;5032850;28;20217;-81
2022/04/08 05:39:07;;;;;;;0.40;0.37;;;;;;;4.27;79.59;98897.53;5032647;28;20209;-82
2022/04/08 05:41:34;;;;;;;1.03;0.40;;;;;;;4.30;79.70;98905.25;5032417;28;20247;-81
2022/04/08 05:44:01;;;;;;;1.60;0.50;;;;;;;4.31;80.14;98906.91;5033264;28;20217;-82
2022/04/08 05:46:28;;;;;;;0.43;0.43;;;;;;;4.32;79.76;98922.63;5032788;28;20596;-81
2022/04/08 05:48:55;;;;;;;1.33;0.83;;;;;;;4.33;79.92;98919.06;5032652;28;20230;-81
2022/04/08 05:51:21;;;;;;;1.57;0.73;;;;;;;4.36;80.74;98928.56;5033444;28;20295;-81
2022/04/08 05:53:48;;;;;;;1.53;0.87;;;;;;;4.41;80.99;98931.75;5033493;28;20226;-81
2022/04/08 05:56:14;;;;;;;1.07;0.60;;;;;;;4.47;80.99;98929.56;5032263;28;20205;-82
2022/04/08 05:58:41;;;;;;;1.80;0.67;;;;;;;4.54;80.97;98935.25;5033257;28;20207;-80
2022/04/08 06:01:10;;;;;;;2.73;1.00;;;;;;;4.62;81.56;98940.03;5033341;28;20245;-81
2022/04/08 06:03:37;;;;;;;1.80;0.63;;;;;;;4.70;81.19;98930.66;5033342;28;20806;-81
2022/04/08 06:06:04;;;;;;;1.97;0.87;;;;;;;4.77;81.49;98944.28;5032526;28;20208;-81
2022/04/08 06:08:30;;;;;;;1.17;0.80;;;;;;;4.85;81.36;98926.13;5032246;28;20237;-81
2022/04/08 06:10:57;;;;;;;4.03;0.90;;;;;;;4.87;81.30;98933.00;5032065;28;20218;-81
2022/04/08 06:13:24;;;;;;;1.87;0.83;;;;;;;4.94;80.42;98922.06;5031992;28;20205;-82
2022/04/08 06:15:51;;;;;;;5.43;0.80;;;;;;;4.96;80.84;98938.63;5043904;28;20221;-81
2022/04/08 06:18:19;;;;;;;7.77;1.00;;;;;;;4.99;80.30;98943.69;5041799;28;20208;-82
2022/04/08 06:20:45;;;;;;;6.67;1.03;;;;;;;5.00;79.82;98943.59;5032141;28;20232;-80
2022/04/08 06:23:12;;;;;;;2.40;0.80;;;;;;;5.00;79.69;98951.50;5032037;28;20202;-82
2022/04/08 06:25:38;;;;;;;3.83;1.00;;;;;;;5.00;79.30;98948.03;5032348;28;20202;-81
2022/04/08 06:28:07;;;;;;;2.23;0.67;;;;;;;4.96;78.65;98959.72;5032319;28;20202;-80
2022/04/08 06:30:36;;;;;;;2.50;0.70;;;;;;;4.94;78.53;98962.47;5032765;28;20775;-81
2022/04/08 06:33:02;;;;;;;2.80;0.97;;;;;;;4.92;78.67;98964.34;5032248;28;20630;-80
2022/04/08 06:35:30;;;;;;;3.50;0.70;;;;;;;4.91;78.16;98967.09;5032080;28;20198;-81
2022/04/08 06:38:00;;;;;;;4.40;0.80;;;;;;;4.89;78.20;98959.28;5031898;28;20587;-81
2022/04/08 06:40:27;;;;;;;3.80;1.00;;;;;;;4.92;78.02;98971.44;5031870;28;20317;-80
2022/04/08 06:42:55;;;;;;;6.53;0.97;;;;;;;4.97;78.07;98966.69;5032285;28;20289;-82
2022/04/08 06:45:23;;;;;;;5.87;0.97;;;;;;;5.01;78.22;98968.19;5033452;28;20202;-82
2022/04/08 06:47:50;;;;;;;3.13;0.60;;;;;;;5.04;78.13;98973.22;5023253;28;20211;-80
2022/04/08 06:50:17;;;;;;;8.70;1.40;;;;;;;5.04;78.04;98963.53;5022492;28;20233;-81
2022/04/08 06:52:46;;;;;;;2.47;0.80;;;;;;;5.09;78.36;98984.34;5021093;28;20226;-81
2022/04/08 06:55:12;;;;;;;7.50;1.83;;;;;;;5.15;78.38;98978.66;5024497;28;20273;-81
2022/04/08 06:57:39;;;;;;;3.90;1.87;;;;;;;5.17;78.17;98979.41;5017791;28;20298;-81
2022/04/08 07:00:09;;;;;;;5.97;1.23;;;;;;;5.15;78.35;98981.28;5019010;28;20230;-80
2022/04/08 07:02:35;;;;;;;5.07;1.37;;;;;;;5.15;77.83;98986.56;5023690;28;20206;-81
2022/04/08 07:05:03;;;;;;;7.60;1.10;;;;;;;5.15;78.03;98981.28;5020480;28;20206;-81
2022/04/08 07:07:29;;;;;;;4.10;1.23;;;;;;;5.15;78.13;98976.00;5020068;28;20210;-81
2022/04/08 07:09:58;;;;;;;5.77;1.40;;;;;;;5.16;78.33;98977.69;5021259;28;20231;-81
2022/04/08 07:12:25;;;;;;;6.87;1.83;;;;;;;5.25;78.67;98977.06;5018197;28;20213;-81
2022/04/08 07:14:51;;;;;;;9.70;1.70;;;;;;;5.34;78.93;98984.38;5020100;28;20229;-81
2022/04/08 07:17:18;;;;;;;6.30;2.03;;;;;;;5.45;79.18;98981.81;5021835;28;20198;-81
2022/04/08 07:19:44;;;;;;;4.53;1.33;;;;;;;5.56;79.72;98976.63;5023403;28;20225;-81
2022/04/08 07:22:11;;;;;;;4.73;1.53;;;;;;;5.64;79.53;98978.75;5024345;28;20285;-81
2022/04/08 07:24:37;;;;;;;4.60;1.93;;;;;;;5.70;78.68;98991.53;5022929;28;20210;-80
2022/04/08 07:27:05;;;;;;;7.53;1.60;;;;;;;5.75;78.63;98993.84;5026621;28;20203;-79
2022/04/08 07:29:32;;;;;;;6.23;2.10;;;;;;;5.76;78.25;98995.53;5018078;28;20230;-81
2022/04/08 07:31:58;;;;;;;6.70;2.30;;;;;;;5.78;77.84;99001.56;5024013;28;20202;-80
2022/04/08 07:34:25;;;;;;;7.57;2.37;;;;;;;5.80;77.15;99007.59;5022170;28;20203;-81
2022/04/08 07:36:51;;;;;;;5.23;2.17;;;;;;;5.82;76.98;99003.03;5023230;28;20202;-80
2022/04/08 07:39:18;;;;;;;7.03;1.60;;;;;;;5.82;76.64;99003.88;5023426;28;20292;-81
2022/04/08 07:41:44;;;;;;;9.27;2.53;;;;;;;5.80;76.14;99011.06;5025048;28;20206;-80
2022/04/08 07:44:12;;;;;;;6.20;1.70;;;;;;;5.78;75.49;99012.13;5018436;28;20203;-81
2022/04/08 07:46:39;;;;;;;4.63;1.50;;;;;;;5.79;74.67;99011.19;5026838;28;20212;-82
2022/04/08 07:49:05;;;;;;;8.20;2.10;;;;;;;5.78;74.58;99005.03;5015442;28;20232;-79
2022/04/08 07:51:32;;;;;;;7.23;2.10;;;;;;;5.76;73.91;99008.75;5022613;28;20224;-82
2022/04/08 07:53:58;;;;;;;10.23;2.23;;;;;;;5.78;73.71;99009.47;5021475;28;20218;-81
2022/04/08 07:56:25;;;;;;;7.87;1.50;;;;;;;5.81;73.51;99007.47;5025160;28;20205;-81
2022/04/08 07:58:51;;;;;;;6.93;1.93;;;;;;;5.82;73.50;99013.59;5020679;28;20206;-80
2022/04/08 08:01:19;;;;;;;6.57;1.60;;;;;;;5.81;72.98;99017.19;5016697;28;20592;-79
2022/04/08 08:03:48;;;;;;;8.23;1.43;;;;;;;5.82;72.90;99016.25;5022046;28;20210;-80
2022/04/08 08:06:15;;;;;;;8.20;1.70;;;;;;;5.85;72.67;99024.81;5024517;28;20290;-80
2022/04/08 08:08:42;;;;;;;9.00;1.90;;;;;;;5.90;72.55;99028.03;5018822;28;20211;-80
2022/04/08 08:11:11;;;;;;;7.93;1.60;;;;;;;5.99;72.83;99030.94;5024048;28;20229;-81
2022/04/08 08:13:38;;;;;;;5.47;1.73;;;;;;;6.05;73.02;99022.59;5021610;28;20209;-80
2022/04/08 08:16:06;;;;;;;6.47;1.43;;;;;;;6.10;72.54;99033.66;5026140;28;20203;-81
2022/04/08 08:18:34;;;;;;;3.43;1.77;;;;;;;6.16;72.36;99033.25;5027150;28;20226;-80
2022/04/08 08:21:00;;;;;;;5.20;1.50;;;;;;;6.18;71.60;99021.63;5020296;28;20227;-80
2022/04/08 08:23:27;;;;;;;8.10;1.53;;;;;;;6.17;70.79;99021.72;5024550;28;20282;-80
2022/04/08 08:25:55;;;;;;;4.70;1.53;;;;;;;6.22;71.10;99031.03;5024100;28;20870;-80
2022/04/08 08:28:22;;;;;;;4.77;1.10;;;;;;;6.30;71.14;99026.97;5028252;28;20210;-80
2022/04/08 08:30:49;;;;;;;7.73;1.20;;;;;;;6.38;71.15;99022.84;5026898;28;20775;-80
2022/04/08 08:33:15;;;;;;;6.20;1.90;;;;;;;6.44;70.71;99030.34;5028495;28;20203;-80
2022/04/08 08:35:45;;;;;;;8.80;1.70;;;;;;;6.56;70.30;99028.59;5025690;28;20313;-80
2022/04/08 08:38:12;;;;;;;7.97;1.73;;;;;;;6.67;70.45;99030.44;5023722;28;20257;-80
2022/04/08 08:40:38;;;;;;;7.97;2.03;;;;;;;6.77;70.34;99027.03;5022928;28;20723;-81
2022/04/08 08:43:05;;;;;;;7.00;1.30;;;;;;;6.82;69.41;99026.69;5030419;28;20209;-81
2022/04/08 08:45:33;;;;;;;5.77;1.47;;;;;;;6.83;67.55;99029.22;5022123;28;20305;-80
2022/04/08 08:48:01;;;;;;;7.23;1.40;;;;;;;6.85;68.01;99015.88;5030172;28;20232;-80
2022/04/08 08:50:29;;;;;;;6.03;1.20;;;;;;;6.87;67.53;99019.25;5029244;28;20324;-79
2022/04/08 08:52:58;;;;;;;3.80;1.10;;;;;;;6.98;67.32;99027.25;5032184;28;20214;-80
2022/04/08 08:55:25;;;;;;;3.70;1.17;;;;;;;7.05;66.32;99027.63;5031627;28;20683;-80
2022/04/08 08:57:52;;;;;;;4.63;1.10;;;;;;;7.12;66.14;99018.28;5033370;28;20206;-80
2022/04/08 09:00:20;;;;;;;7.40;1.30;;;;;;;7.22;65.89;99014.81;5026671;28;20237;-81
2022/04/08 09:02:49;;;;;;;4.77;1.20;;;;;;;7.30;64.90;99006.31;5026345;28;20206;-80
2022/04/08 09:05:17;;;;;;;3.07;1.00;;;;;;;7.41;64.42;99008.13;5019649;28;20203;-80
2022/04/08 09:07:53;;;;;;;5.53;1.20;;;;;;;7.63;65.48;99014.31;5021575;28;20300;-80
2022/04/08 09:10:29;;;;;;;4.23;1.17;;;;;;;7.81;65.17;99013.84;5017146;28;20230;-79
2022/04/08 09:12:57;;;;;;;5.37;2.00;;;;;;;7.77;62.60;99015.88;5023384;28;20632;-80
2022/04/08 09:15:23;;;;;;;5.37;1.20;;;;;;;7.78;61.93;99016.72;5018335;28;20551;-80
2022/04/08 09:17:51;;;;;;;3.73;1.10;;;;;;;7.80;62.15;99012.16;5027787;28;20214;-81
2022/04/08 09:20:18;;;;;;;5.73;1.40;;;;;;;7.86;61.39;99009.03;5016906;28;20222;-81
2022/04/08 09:22:53;;;;;;;4.47;1.20;;;;;;;7.90;61.00;99000.69;5023096;28;20210;-79
2022/04/08 09:25:24;;;;;;;3.77;1.43;;;;;;;7.95;61.85;99011.78;5022408;28;20198;-80
2022/04/08 09:27:52;;;;;;;4.50;1.37;;;;;;;7.98;61.55;99010.72;5020878;28;20233;-80
2022/04/08 09:30:20;;;;;;;4.57;1.27;;;;;;;8.01;60.78;99013.97;5018625;28;20257;-79
2022/04/08 09:32:47;;;;;;;4.87;1.30;;;;;;;8.05;60.17;99009.28;5021997;28;20652;-80
2022/04/08 09:35:17;;;;;;;5.83;1.23;;;;;;;8.05;59.59;99006.63;5025365;28;20198;-80
2022/04/08 09:37:44;;;;;;;3.10;0.93;;;;;;;8.07;58.98;99011.78;5017552;28;20260;-80
2022/04/08 09:40:11;;;;;;;6.83;1.60;;;;;;;8.06;57.49;99010.94;5019205;28;20249;-79
2022/04/08 09:42:43;;;;;;;5.20;1.37;;;;;;;8.10;57.45;98995.63;5018401;28;20539;-81
2022/04/08 09:45:11;;;;;;;2.00;1.20;;;;;;;8.16;57.81;98992.50;5026678;28;20201;-80
2022/04/08 09:47:38;;;;;;;4.37;1.27;;;;;;;8.26;57.26;98993.44;5030116;28;20641;-80
2022/04/08 09:50:05;;;;;;;3.87;1.73;;;;;;;8.33;57.85;98997.34;5021187;28;20250;-80
2022/04/08 09:52:32;;;;;;;3.90;1.60;;;;;;;8.37;56.26;98984.69;5024654;28;20203;-81
2022/04/08 09:55:00;;;;;;;2.20;1.40;;;;;;;8.40;56.65;98987.09;5029024;28;20226;-80
2022/04/08 09:57:31;;;;;;;5.60;1.23;;;;;;;8.42;55.55;98987.81;5026579;28;20209;-81
2022/04/08 09:59:59;;;;;;;3.67;1.47;;;;;;;8.50;55.86;98977.41;5022151;28;20234;-80
2022/04/08 10:02:30;;;;;;;2.43;1.33;;;;;;;8.54;56.13;98974.38;5018708;28;20301;-79
2022/04/08 10:04:56;;;;;;;4.07;1.40;;;;;;;8.56;55.74;98971.59;5013434;28;20217;-80
2022/04/08 10:07:24;;;;;;;2.90;1.27;;;;;;;8.57;55.63;98971.47;5020703;28;20199;-80
2022/04/08 10:09:57;;;;;;;4.27;1.50;;;;;;;8.58;56.38;98973.16;5016220;28;20234;-80
2022/04/08 10:12:32;;;;;;;3.93;1.60;;;;;;;8.61;55.97;98956.13;5024820;28;20195;-80
2022/04/08 10:15:06;;;;;;;5.63;1.40;;;;;;;8.63;55.97;98960.34;5023668;28;20313;-80
2022/04/08 10:17:34;;;;;;;2.20;1.40;;;;;;;8.65;54.40;98957.56;5030333;28;20277;-80
2022/04/08 10:20:17;;;;;;;2.73;1.10;;;;;;;8.65;54.23;98945.16;5019018;28;20222;-81
2022/04/08 10:22:44;;;;;;;6.10;1.30;;;;;;;8.66;54.88;98941.53;5032629;28;20202;-80
2022/04/08 10:25:15;;;;;;;2.77;1.40;;;;;;;8.72;54.33;98937.53;5032962;28;20206;-81
2022/04/08 10:27:43;;;;;;;3.43;1.37;;;;;;;8.76;53.91;98933.66;5022681;28;20233;-81
2022/04/08 10:30:15;;;;;;;3.37;1.10;;;;;;;8.84;53.84;98939.16;5012914;28;20234;-79
2022/04/08 10:32:44;;;;;;;4.63;1.50;;;;;;;8.92;54.63;98926.09;5027239;28;20205;-79
2022/04/08 10:35:18;;;;;;;3.37;1.10;;;;;;;8.98;53.84;98930.88;5015892;28;20307;-79
2022/04/08 10:37:55;;;;;;;5.10;1.23;;;;;;;9.02;52.97;98926.16;5032173;28;20190;-78
2022/04/08 10:40:22;;;;;;;5.37;1.30;;;;;;;9.09;53.02;98926.47;5031768;28;20588;-78
2022/04/08 10:42:57;;;;;;;6.63;1.70;;;;;;;9.15;51.73;98923.28;5032750;28;20220;-79
2022/04/08 10:45:23;;;;;;;3.50;1.10;;;;;;;9.22;51.47;98921.81;5032599;28;20197;-79
2022/04/08 10:47:51;;;;;;;3.40;0.87;;;;;;;9.28;50.91;98918.63;5032049;28;20214;-80
2022/04/08 10:50:26;;;;;;;2.17;0.90;;;;;;;9.38;51.44;98923.03;5031823;28;20265;-81
2022/04/08 10:53:04;;;;;;;4.53;1.20;;;;;;;9.44;50.62;98921.66;5031801;28;20851;-81
2022/04/08 10:55:31;;;;;;;3.67;1.07;;;;;;;9.48;50.46;98914.28;5032045;28;20556;-80
2022/04/08 10:57:59;;;;;;;3.40;0.90;;;;;;;9.50;50.59;98929.09;5031555;28;20210;-79
2022/04/08 11:00:26;;;;;;;2.43;0.90;;;;;;;9.43;49.41;98922.63;5031658;28;20226;-79
2022/04/08 11:02:56;;;;;;;3.30;1.10;;;;;;;9.38;49.00;98922.19;5032176;28;20252;-80
2022/04/08 11:05:22;;;;;;;3.73;1.20;;;;;;;9.32;48.54;98907.59;5032287;28;20218;-80
2022/04/08 11:07:52;;;;;;;3.40;1.10;;;;;;;9.26;48.72;98910.81;5034302;28;20321;-81
2022/04/08 11:10:21;;;;;;;3.30;1.10;;;;;;;9.26;48.18;98909.97;5032162;28;20229;-79
2022/04/08 11:12:49;;;;;;;3.70;1.20;;;;;;;9.26;48.23;98907.31;5032541;28;20234;-79
2022/04/08 11:15:16;;;;;;;2.27;1.30;;;;;;;9.25;48.59;98900.31;5031955;28;20214;-79
2022/04/08 11:17:43;;;;;;;1.40;0.93;;;;;;;9.29;48.35;98902.56;5018195;28;20577;-84
2022/04/08 11:20:13;;;;;;;3.30;1.17;;;;;;;9.33;48.60;98896.00;5011436;28;20226;-83
2022/04/08 11:22:41;;;;;;;2.90;0.93;;;;;;;9.35;48.47;98904.69;5010929;28;20216;-84
2022/04/08 11:25:09;;;;;;;5.57;1.30;;;;;;;9.32;47.93;98904.94;5011618;28;20662;-83
2022/04/08 11:27:35;;;;;;;6.27;0.87;;;;;;;9.27;47.37;98898.34;5025470;28;20202;-84
2022/04/08 11:30:07;;;;;;;2.87;1.10;;;;;;;9.24;47.44;98903.94;5032110;28;20599;-83
2022/04/08 11:32:34;;;;;;;4.53;1.20;;;;;;;9.23;46.82;98897.78;5031934;28;20202;-83
2022/04/08 11:35:12;;;;;;;4.40;0.80;;;;;;;9.31;47.90;98894.47;5031705;28;20209;-84
2022/04/08 11:37:39;;;;;;;3.57;1.10;;;;;;;9.37;47.14;98888.63;5031072;28;20225;-84
2022/04/08 11:40:06;;;;;;;3.13;0.97;;;;;;;9.43;46.90;98889.91;5031164;28;20225;-83
2022/04/08 11:42:33;;;;;;;2.00;0.90;;;;;;;9.46;46.67;98879.88;5029960;28;20202;-83